Pagina principale
METAR-TAF:

METAR-TAF

Aeroporti :

Aeroporto di Salisburgo

Salisburgo, Austria

latitudine: 47-48N, longitudine: 013-00E, altezza: 430 m

Osservazione

Il bollettino è stato emesso 23 minuti fa, alle 17:20 UTC
Vento 3 kt da est/sud-est
Temperature 13°C
Umidità 62%
Pressione 1021 hPa
Visibilità 10 km o più
Nuvoloso ad un'altezza di 5000 ft

METAR: LOWS 311720Z 12003KT 9999 BKN050 13/06 Q1021 BECMG -RA

Ora: 19:43 (17:43 UTC)

Previsione

Il bollettino è stato emesso 28 minuti fa, alle 17:15 UTC
Previsione valida dal 31 alle 18 UTC al 01 alle 18 UTC
Vento 5 kt da sud/sud-est
Visibilità 10 km o più
Nuvoloso ad un'altezza di 5000 ft
Temporaneamente
dal 31 alle 18 UTC al 01 alle 03 UTC
pioggia debole
Evoluzione graduale
dal 01 alle 08 UTC al 01 alle 10 UTC
Vento 6 kt da nord/nord-est
Poco nuvoloso ad un'altezza di 5000 ft

TAF: LOWS 311715Z 3118/0118 15005KT 9999 BKN050 TX20/0115Z TN09/0103Z TEMPO 3118/0103 -RA BECMG 0108/0110 03006KT FEW050

Osservazioni e previsioni meteorologiche di più di 4000 aeroporti (messaggi METAR e TAF).

Le stazioni disponibili sono rappresentate dai dischi gialli e rossi sulla carta.

Puntare il mouse per vedere il nome della stazione.

Clicca sopra per visualizzare le osservazioni e previsioni meteorologiche.

Per cambiare la mappa : fare clic sui pulsanti verdi con una croce nera per ingrandire, il pulsante verde con un trattino per diminuire, o sulla freccia verde per le mappe adiacenti.


METAR-TAF: